createdAt,value
2023-07-18T00:01:24.012Z,35.60
2023-07-18T00:03:51.073Z,35.80
2023-07-18T00:06:19.619Z,35.70
2023-07-18T00:08:46.941Z,35.00
2023-07-18T00:11:13.893Z,34.90
2023-07-18T00:13:40.945Z,34.90
2023-07-18T00:16:07.972Z,35.00
2023-07-18T00:18:34.944Z,34.60
2023-07-18T00:21:02.122Z,34.60
2023-07-18T00:23:30.179Z,34.70
2023-07-18T00:25:57.268Z,34.10
2023-07-18T00:28:24.559Z,34.50
2023-07-18T00:30:51.612Z,34.80
2023-07-18T00:33:40.038Z,34.30
2023-07-18T00:36:07.891Z,34.80
2023-07-18T00:38:34.817Z,34.80
2023-07-18T00:41:01.920Z,34.60
2023-07-18T00:43:47.461Z,34.60
2023-07-18T00:46:16.205Z,34.90
2023-07-18T00:48:43.600Z,34.70
2023-07-18T00:51:10.803Z,34.60
2023-07-18T00:53:40.362Z,34.60
2023-07-18T00:56:07.524Z,34.00
2023-07-18T00:58:34.649Z,33.80
2023-07-18T01:01:02.137Z,34.00
2023-07-18T01:03:30.034Z,33.80
2023-07-18T01:05:57.543Z,33.30
2023-07-18T01:08:24.686Z,33.20
2023-07-18T01:10:53.028Z,33.20
2023-07-18T01:13:20.154Z,33.40
2023-07-18T01:15:48.176Z,33.20
2023-07-18T01:18:16.361Z,33.10
2023-07-18T01:20:47.020Z,33.20
2023-07-18T01:23:15.123Z,33.00
2023-07-18T01:25:43.916Z,33.40
2023-07-18T01:28:12.149Z,33.70
2023-07-18T01:30:41.582Z,34.00
2023-07-18T01:33:08.513Z,33.90
2023-07-18T01:35:53.394Z,34.20
2023-07-18T01:41:13.249Z,33.80
2023-07-18T01:43:40.140Z,33.70
2023-07-18T01:46:07.087Z,33.80
2023-07-18T01:48:34.094Z,33.50
2023-07-18T01:51:01.059Z,33.10
2023-07-18T01:53:29.502Z,33.70
2023-07-18T01:55:59.651Z,33.00
2023-07-18T01:58:26.610Z,33.70
2023-07-18T02:00:53.668Z,33.70
2023-07-18T02:03:20.682Z,33.50
2023-07-18T02:05:48.854Z,33.60
2023-07-18T02:08:16.082Z,34.30
2023-07-18T02:10:43.031Z,34.10
2023-07-18T02:13:11.153Z,34.00
2023-07-18T02:15:38.479Z,34.50
2023-07-18T02:18:06.207Z,34.50
2023-07-18T02:20:33.368Z,34.60
2023-07-18T02:23:02.124Z,34.70
2023-07-18T02:25:29.597Z,33.80
2023-07-18T02:27:56.669Z,33.80
2023-07-18T02:30:25.068Z,33.60
2023-07-18T02:32:52.739Z,33.70
2023-07-18T02:35:22.699Z,33.80
2023-07-18T02:37:50.023Z,33.60
2023-07-18T02:40:18.966Z,33.50
2023-07-18T02:42:46.479Z,34.00
2023-07-18T02:45:13.834Z,33.80
2023-07-18T02:47:40.933Z,33.80
2023-07-18T02:50:09.091Z,33.80
2023-07-18T02:52:36.414Z,34.10
2023-07-18T02:55:04.911Z,34.80
2023-07-18T02:57:32.689Z,34.40
2023-07-18T03:00:00.591Z,34.50
2023-07-18T03:02:30.488Z,34.20
2023-07-18T03:04:57.695Z,34.30
2023-07-18T03:07:24.834Z,33.70
2023-07-18T03:09:51.767Z,33.30
2023-07-18T03:12:18.720Z,33.20
2023-07-18T03:14:45.727Z,33.40
2023-07-18T03:17:12.701Z,33.20
2023-07-18T03:19:39.991Z,33.10
2023-07-18T03:22:07.118Z,33.50
2023-07-18T03:24:36.582Z,33.40
2023-07-18T03:27:04.816Z,33.70
2023-07-18T03:29:32.568Z,33.70
2023-07-18T03:32:00.760Z,34.20
2023-07-18T03:34:29.964Z,34.60
2023-07-18T03:36:57.291Z,35.10
2023-07-18T03:39:24.580Z,34.90
2023-07-18T03:41:51.957Z,34.20
2023-07-18T03:44:19.147Z,34.00
2023-07-18T03:46:46.411Z,34.00
2023-07-18T03:49:13.389Z,33.70
2023-07-18T03:51:40.568Z,33.30
2023-07-18T03:54:07.626Z,33.60
2023-07-18T03:56:35.100Z,32.90
2023-07-18T03:59:02.256Z,33.20
2023-07-18T04:01:29.224Z,33.30
2023-07-18T04:03:56.217Z,32.70
2023-07-18T04:06:23.307Z,33.10
2023-07-18T04:08:50.195Z,33.10
2023-07-18T04:11:18.266Z,33.10
2023-07-18T04:13:45.556Z,33.20
2023-07-18T04:16:13.144Z,32.90
2023-07-18T04:18:40.154Z,33.30
2023-07-18T04:21:08.399Z,33.20
2023-07-18T04:23:35.429Z,33.70
2023-07-18T04:26:04.387Z,33.30
2023-07-18T04:28:35.819Z,33.10
2023-07-18T04:31:03.389Z,33.60
2023-07-18T04:33:38.519Z,33.90
2023-07-18T04:36:07.283Z,34.10
2023-07-18T04:38:35.336Z,34.30
2023-07-18T04:41:04.239Z,34.90
2023-07-18T04:43:31.210Z,34.60
2023-07-18T04:45:58.268Z,34.90
2023-07-18T04:48:25.338Z,35.20
2023-07-18T04:50:59.467Z,35.00
2023-07-18T04:53:28.169Z,34.60
2023-07-18T04:55:58.284Z,34.60
2023-07-18T04:58:26.335Z,34.30
2023-07-18T05:00:56.145Z,34.70
2023-07-18T05:03:23.923Z,34.30
2023-07-18T05:05:51.082Z,34.30
2023-07-18T05:08:18.897Z,34.60
2023-07-18T05:10:46.172Z,34.70
2023-07-18T05:13:13.168Z,35.20
2023-07-18T05:15:43.339Z,35.60
2023-07-18T05:18:10.805Z,35.00
2023-07-18T05:20:37.978Z,34.30
2023-07-18T05:23:05.219Z,34.50
2023-07-18T05:25:32.278Z,34.50
2023-07-18T05:27:59.888Z,33.70
2023-07-18T05:30:27.315Z,33.90
2023-07-18T05:32:54.679Z,34.60
2023-07-18T05:35:22.110Z,34.30
2023-07-18T05:37:49.134Z,34.10
2023-07-18T05:40:19.112Z,34.40
2023-07-18T05:42:49.014Z,34.50
2023-07-18T05:45:16.436Z,34.60
2023-07-18T05:47:43.808Z,35.20
2023-07-18T05:50:11.146Z,36.00
2023-07-18T05:52:38.409Z,36.30
2023-07-18T05:55:07.129Z,35.90
2023-07-18T05:57:34.453Z,36.30
2023-07-18T06:00:02.488Z,37.40
2023-07-18T06:02:29.518Z,36.60
2023-07-18T06:04:56.807Z,36.20
2023-07-18T06:07:23.918Z,35.80
2023-07-18T06:09:53.577Z,35.80
2023-07-18T06:12:20.589Z,36.00
2023-07-18T06:14:48.078Z,36.90
2023-07-18T06:17:15.353Z,37.20
2023-07-18T06:19:42.678Z,36.50
2023-07-18T06:22:10.764Z,35.80
2023-07-18T06:24:37.705Z,36.20
2023-07-18T06:27:05.103Z,36.90
2023-07-18T06:29:33.414Z,37.50
2023-07-18T06:32:02.198Z,37.70
2023-07-18T06:34:31.453Z,37.20
2023-07-18T06:37:03.611Z,36.90
2023-07-18T06:39:30.723Z,37.80
2023-07-18T06:41:58.841Z,37.80
2023-07-18T06:44:26.124Z,38.30
2023-07-18T06:46:53.703Z,38.80
2023-07-18T06:49:21.883Z,38.50
2023-07-18T06:51:51.042Z,38.60
2023-07-18T06:54:19.050Z,38.00
2023-07-18T06:56:46.626Z,36.80
2023-07-18T06:59:15.196Z,36.90
2023-07-18T07:01:43.534Z,38.10
2023-07-18T07:04:11.972Z,38.90
2023-07-18T07:06:43.294Z,39.30
2023-07-18T07:09:15.022Z,39.60
2023-07-18T07:11:43.298Z,39.30
2023-07-18T07:14:10.250Z,38.60
2023-07-18T07:16:37.304Z,37.40
2023-07-18T07:19:06.953Z,38.00
2023-07-18T07:21:33.943Z,38.80
2023-07-18T07:24:00.880Z,39.20
2023-07-18T07:26:28.320Z,40.00
2023-07-18T07:28:55.413Z,40.20
2023-07-18T07:31:22.616Z,40.10
2023-07-18T07:33:49.926Z,40.00
2023-07-18T07:36:17.028Z,40.00
2023-07-18T07:38:43.904Z,40.00
2023-07-18T07:41:10.846Z,39.50
2023-07-18T07:43:37.829Z,38.70
2023-07-18T07:46:05.471Z,38.40
2023-07-18T07:48:32.546Z,38.60
2023-07-18T07:51:01.715Z,38.80
2023-07-18T07:53:28.703Z,39.30
2023-07-18T07:55:55.609Z,38.70
2023-07-18T07:58:22.658Z,38.60
2023-07-18T08:00:49.626Z,38.60
2023-07-18T08:03:17.675Z,38.50
2023-07-18T08:05:44.631Z,38.80
2023-07-18T08:08:11.708Z,37.90
2023-07-18T08:10:38.599Z,37.90
2023-07-18T08:13:05.846Z,37.80
2023-07-18T08:15:32.732Z,38.10
2023-07-18T08:17:59.909Z,38.00
2023-07-18T08:20:26.922Z,37.50
2023-07-18T08:22:53.785Z,38.20
2023-07-18T08:25:20.772Z,38.30
2023-07-18T08:27:47.809Z,39.50
2023-07-18T08:30:14.947Z,38.70
2023-07-18T08:32:41.968Z,38.00
2023-07-18T08:35:09.607Z,38.20
2023-07-18T08:37:36.698Z,38.30
2023-07-18T08:40:06.261Z,38.90
2023-07-18T08:42:34.770Z,39.00
2023-07-18T08:45:04.528Z,38.30
2023-07-18T08:47:31.795Z,38.60
2023-07-18T08:50:00.220Z,38.70
2023-07-18T08:52:27.353Z,39.00
2023-07-18T08:54:54.326Z,39.20
2023-07-18T08:57:21.746Z,38.50
2023-07-18T08:59:50.099Z,38.50
2023-07-18T09:02:17.086Z,38.80
2023-07-18T09:04:47.304Z,38.40
2023-07-18T09:07:15.906Z,38.30
2023-07-18T09:09:48.236Z,38.60
2023-07-18T09:12:15.968Z,38.50
2023-07-18T09:14:43.559Z,39.10
2023-07-18T09:17:10.509Z,40.60
2023-07-18T09:19:38.569Z,40.50
2023-07-18T09:22:07.421Z,39.70
2023-07-18T09:24:37.147Z,39.60
2023-07-18T09:27:09.733Z,39.70
2023-07-18T09:29:38.117Z,39.80
2023-07-18T09:32:05.503Z,39.40
2023-07-18T09:34:32.727Z,40.00
2023-07-18T09:37:02.541Z,40.40
2023-07-18T09:39:30.502Z,40.10
2023-07-18T09:41:57.923Z,40.20
2023-07-18T09:44:33.235Z,40.30
2023-07-18T09:47:02.301Z,40.20
2023-07-18T09:49:33.822Z,40.40
2023-07-18T09:52:07.234Z,40.50
2023-07-18T09:54:34.964Z,40.90
2023-07-18T09:57:05.912Z,40.80
2023-07-18T09:59:38.711Z,40.90
2023-07-18T10:02:07.643Z,41.70
2023-07-18T10:04:37.363Z,42.30
2023-07-18T10:07:05.498Z,41.90
2023-07-18T10:09:34.118Z,42.50
2023-07-18T10:12:03.830Z,42.00
2023-07-18T10:14:51.258Z,41.40
2023-07-18T10:17:42.005Z,41.10
2023-07-18T10:20:13.038Z,41.60
2023-07-18T10:22:49.557Z,42.90
2023-07-18T10:25:19.076Z,42.60
2023-07-18T10:27:47.120Z,41.40
2023-07-18T10:30:19.560Z,40.50
2023-07-18T10:32:57.471Z,40.40
2023-07-18T10:35:27.088Z,39.80
2023-07-18T10:37:56.079Z,39.70
2023-07-18T10:40:44.974Z,40.50
2023-07-18T10:43:17.469Z,41.10
2023-07-18T10:45:45.260Z,42.10
2023-07-18T10:48:16.025Z,42.50
2023-07-18T10:50:44.786Z,43.20
2023-07-18T10:53:19.943Z,43.30
2023-07-18T10:55:48.209Z,43.00
2023-07-18T10:58:20.438Z,42.30
2023-07-18T11:00:49.568Z,42.40
2023-07-18T11:03:21.769Z,42.30
2023-07-18T11:05:50.608Z,41.70
2023-07-18T11:08:33.608Z,41.50
2023-07-18T11:11:03.813Z,41.60
2023-07-18T11:13:35.985Z,40.30
2023-07-18T11:16:13.586Z,40.50
2023-07-18T11:18:43.307Z,41.20
2023-07-18T11:21:11.195Z,41.70
2023-07-18T11:23:40.160Z,42.40
2023-07-18T11:26:13.695Z,42.70
2023-07-18T11:28:43.058Z,42.90
2023-07-18T11:31:41.003Z,43.10
2023-07-18T11:34:10.446Z,41.90
2023-07-18T11:36:41.652Z,41.30
2023-07-18T11:39:23.512Z,41.10
2023-07-18T11:41:53.661Z,40.40
2023-07-18T11:44:27.777Z,40.70
2023-07-18T11:46:56.284Z,40.70
2023-07-18T11:49:37.128Z,39.90
2023-07-18T11:52:05.156Z,39.70
2023-07-18T11:54:35.689Z,39.70
2023-07-18T11:57:05.373Z,40.20
2023-07-18T11:59:32.683Z,40.30
2023-07-18T12:01:59.690Z,40.10
2023-07-18T12:04:26.985Z,40.60
2023-07-18T12:06:53.899Z,40.70
2023-07-18T12:09:20.835Z,40.90
2023-07-18T12:11:47.784Z,41.70
2023-07-18T12:14:14.694Z,42.20
2023-07-18T12:16:41.678Z,42.10
2023-07-18T12:19:08.716Z,42.20
2023-07-18T12:21:35.567Z,42.70
2023-07-18T12:24:03.094Z,42.80
2023-07-18T12:26:30.086Z,43.30
2023-07-18T12:28:57.091Z,43.00
2023-07-18T12:31:24.416Z,42.60
2023-07-18T12:33:52.361Z,42.40
2023-07-18T12:36:20.839Z,42.00
2023-07-18T12:38:48.068Z,41.00
2023-07-18T12:41:15.025Z,41.40
2023-07-18T12:43:41.965Z,42.10
2023-07-18T12:46:08.954Z,41.80
2023-07-18T12:48:35.917Z,41.80
2023-07-18T12:51:05.746Z,42.50
2023-07-18T12:53:32.793Z,42.60
2023-07-18T12:55:59.694Z,42.30
2023-07-18T12:58:26.610Z,42.40
2023-07-18T13:00:53.589Z,42.80
2023-07-18T13:03:20.690Z,43.30
2023-07-18T13:05:47.721Z,43.50
2023-07-18T13:08:14.643Z,44.10
2023-07-18T13:10:41.641Z,44.90
2023-07-18T13:13:08.662Z,45.60
2023-07-18T13:15:35.600Z,45.20
2023-07-18T13:18:03.159Z,43.90
2023-07-18T13:20:30.301Z,43.00
2023-07-18T13:22:57.336Z,42.90
2023-07-18T13:25:24.319Z,42.80
2023-07-18T13:27:51.390Z,43.20
2023-07-18T13:30:19.671Z,43.90
2023-07-18T13:32:47.002Z,43.90
2023-07-18T13:35:15.213Z,44.30
2023-07-18T13:37:42.302Z,44.30
2023-07-18T13:40:09.465Z,44.50
2023-07-18T13:42:36.458Z,43.80
2023-07-18T13:45:05.599Z,44.00
2023-07-18T13:47:32.599Z,44.00
2023-07-18T13:49:59.575Z,44.30
2023-07-18T13:52:27.656Z,44.50
2023-07-18T13:54:54.831Z,44.30
2023-07-18T13:57:21.751Z,44.60
2023-07-18T13:59:49.322Z,44.80
2023-07-18T14:02:16.327Z,44.50
2023-07-18T14:04:43.250Z,45.20
2023-07-18T14:07:10.243Z,45.60
2023-07-18T14:09:37.190Z,45.60
2023-07-18T14:12:06.559Z,45.30
2023-07-18T14:14:33.553Z,44.00
2023-07-18T14:17:00.841Z,43.70
2023-07-18T14:19:27.709Z,44.20
2023-07-18T14:21:55.637Z,43.90
2023-07-18T14:24:22.592Z,42.90
2023-07-18T14:26:49.455Z,42.90
2023-07-18T14:29:16.511Z,42.70
2023-07-18T14:31:43.711Z,42.80
2023-07-18T14:34:10.760Z,43.20
2023-07-18T14:36:37.828Z,42.80
2023-07-18T14:39:05.342Z,42.20
2023-07-18T14:41:32.396Z,41.90
2023-07-18T14:43:59.486Z,41.20
2023-07-18T14:46:26.421Z,40.90
2023-07-18T14:48:53.463Z,40.60
2023-07-18T14:51:21.513Z,40.60
2023-07-18T14:53:48.611Z,40.20
2023-07-18T14:56:15.555Z,40.80
2023-07-18T14:58:42.554Z,40.90
2023-07-18T15:01:09.512Z,41.20
2023-07-18T15:03:37.020Z,41.60
2023-07-18T15:06:07.296Z,42.10
2023-07-18T15:08:35.448Z,42.30
2023-07-18T15:11:02.520Z,42.70
2023-07-18T15:13:29.453Z,42.70
2023-07-18T15:15:56.447Z,42.90
2023-07-18T15:18:23.427Z,43.00
2023-07-18T15:20:50.487Z,43.30
2023-07-18T15:23:17.435Z,43.20
2023-07-18T15:25:44.448Z,43.40
2023-07-18T15:28:14.809Z,43.30
2023-07-18T15:30:42.750Z,43.50
2023-07-18T15:33:25.625Z,43.60
2023-07-18T15:35:54.592Z,43.50
2023-07-18T15:38:21.538Z,43.60
2023-07-18T15:40:49.272Z,43.70
2023-07-18T15:43:16.253Z,43.70
2023-07-18T15:45:47.272Z,43.90
2023-07-18T15:48:15.480Z,44.00
2023-07-18T15:50:42.740Z,44.00
2023-07-18T15:53:09.761Z,43.90
2023-07-18T15:55:36.652Z,44.10
2023-07-18T15:58:03.761Z,44.20
2023-07-18T16:00:31.639Z,44.20
2023-07-18T16:02:58.816Z,43.70
2023-07-18T16:05:26.178Z,43.40
2023-07-18T16:07:53.193Z,42.30
2023-07-18T16:10:20.212Z,42.30
2023-07-18T16:12:47.148Z,42.50
2023-07-18T16:15:14.210Z,42.90
2023-07-18T16:17:41.276Z,42.80
2023-07-18T16:20:09.032Z,43.00
2023-07-18T16:22:36.022Z,43.20
2023-07-18T16:25:05.843Z,43.30
2023-07-18T16:27:34.202Z,42.60
2023-07-18T16:30:01.989Z,42.00
2023-07-18T16:32:30.214Z,41.80
2023-07-18T16:34:58.393Z,42.10
2023-07-18T16:37:25.341Z,42.50
2023-07-18T16:39:53.074Z,42.90
2023-07-18T16:42:24.347Z,43.00
2023-07-18T16:44:52.125Z,43.20
2023-07-18T16:47:19.670Z,43.40
2023-07-18T16:49:46.897Z,43.30
2023-07-18T16:52:14.195Z,43.50
2023-07-18T16:54:41.208Z,42.90
2023-07-18T16:57:08.154Z,42.30
2023-07-18T16:59:35.519Z,42.70
2023-07-18T17:02:05.901Z,42.80
2023-07-18T17:04:33.312Z,42.80
2023-07-18T17:07:00.436Z,41.50
2023-07-18T17:09:27.419Z,41.80
2023-07-18T17:11:54.400Z,41.10
2023-07-18T17:14:21.372Z,41.10
2023-07-18T17:16:48.395Z,41.70
2023-07-18T17:19:16.054Z,42.10
2023-07-18T17:21:43.067Z,42.30
2023-07-18T17:24:09.983Z,42.40
2023-07-18T17:26:36.962Z,42.20
2023-07-18T17:29:03.956Z,42.50
2023-07-18T17:31:31.899Z,42.70
2023-07-18T17:34:01.618Z,42.70
2023-07-18T17:36:29.232Z,42.70
2023-07-18T17:38:56.166Z,42.80
2023-07-18T17:41:23.852Z,42.90
2023-07-18T17:43:50.960Z,42.90
2023-07-18T17:46:18.202Z,42.70
2023-07-18T17:48:45.640Z,42.70
2023-07-18T17:51:12.834Z,42.80
2023-07-18T17:53:40.092Z,42.90
2023-07-18T17:56:07.980Z,42.90
2023-07-18T17:58:36.192Z,43.00
2023-07-18T18:01:03.193Z,43.10
2023-07-18T18:03:30.327Z,43.00
2023-07-18T18:05:57.513Z,42.20
2023-07-18T18:08:24.453Z,42.10
2023-07-18T18:10:51.671Z,42.20
2023-07-18T18:13:18.999Z,42.40
2023-07-18T18:16:00.866Z,42.30
2023-07-18T18:18:33.219Z,42.00
2023-07-18T18:21:01.581Z,41.70
2023-07-18T18:23:38.532Z,41.20
2023-07-18T18:26:07.499Z,40.90
2023-07-18T18:28:34.982Z,41.10
2023-07-18T18:31:02.094Z,41.50
2023-07-18T18:33:29.122Z,41.50
2023-07-18T18:35:56.472Z,41.20
2023-07-18T18:38:23.881Z,41.30
2023-07-18T18:40:51.074Z,41.10
2023-07-18T18:43:18.146Z,41.40
2023-07-18T18:45:45.130Z,41.00
2023-07-18T18:48:12.196Z,41.00
2023-07-18T18:50:40.456Z,41.00
2023-07-18T18:53:08.296Z,41.30
2023-07-18T18:55:35.772Z,41.50
2023-07-18T18:58:02.834Z,41.60
2023-07-18T19:00:29.836Z,41.30
2023-07-18T19:02:59.073Z,41.30
2023-07-18T19:05:26.744Z,40.60
2023-07-18T19:07:54.130Z,40.30
2023-07-18T19:10:21.115Z,40.10
2023-07-18T19:12:48.115Z,40.30
2023-07-18T19:15:15.319Z,40.20
2023-07-18T19:17:42.420Z,40.40
2023-07-18T19:20:10.249Z,40.70
2023-07-18T19:22:37.256Z,40.70
2023-07-18T19:25:07.665Z,40.90
2023-07-18T19:27:35.257Z,41.00
2023-07-18T19:30:04.049Z,41.00
2023-07-18T19:32:31.080Z,40.70
2023-07-18T19:34:58.188Z,40.80
2023-07-18T19:37:25.459Z,40.60
2023-07-18T19:39:52.392Z,40.70
2023-07-18T19:42:19.245Z,40.60
2023-07-18T19:44:48.248Z,40.40
2023-07-18T19:47:15.670Z,40.10
2023-07-18T19:49:42.666Z,39.80
2023-07-18T19:52:09.674Z,40.00
2023-07-18T19:54:36.600Z,40.10
2023-07-18T19:57:03.701Z,40.30
2023-07-18T19:59:31.462Z,40.20
2023-07-18T20:01:58.676Z,39.90
2023-07-18T20:04:25.809Z,39.60
2023-07-18T20:06:53.291Z,39.70
2023-07-18T20:09:20.205Z,39.40
2023-07-18T20:11:47.221Z,39.40
2023-07-18T20:14:14.251Z,39.70
2023-07-18T20:16:42.533Z,39.90
2023-07-18T20:19:09.917Z,40.00
2023-07-18T20:21:39.716Z,40.00
2023-07-18T20:24:06.866Z,40.00
2023-07-18T20:26:35.410Z,39.90
2023-07-18T20:29:02.774Z,39.90
2023-07-18T20:31:32.709Z,39.80
2023-07-18T20:34:01.118Z,39.80
2023-07-18T20:36:28.252Z,39.60
2023-07-18T20:38:55.259Z,39.30
2023-07-18T20:41:23.873Z,39.20
2023-07-18T20:43:52.106Z,39.40
2023-07-18T20:46:19.041Z,39.40
2023-07-18T20:48:46.931Z,39.60
2023-07-18T20:51:13.998Z,39.50
2023-07-18T20:53:42.189Z,39.30
2023-07-18T20:56:09.128Z,39.30
2023-07-18T20:58:36.533Z,39.10
2023-07-18T21:01:03.653Z,39.20
2023-07-18T21:03:30.745Z,39.30
2023-07-18T21:05:57.838Z,39.40
2023-07-18T21:08:24.801Z,39.50
2023-07-18T21:10:51.872Z,39.60
2023-07-18T21:13:19.059Z,39.60
2023-07-18T21:15:46.077Z,39.60
2023-07-18T21:18:13.100Z,39.60
2023-07-18T21:20:41.619Z,39.60
2023-07-18T21:23:08.912Z,39.70
2023-07-18T21:25:36.451Z,39.60
2023-07-18T21:28:04.332Z,39.60
2023-07-18T21:30:32.200Z,39.60
2023-07-18T21:32:59.303Z,39.50
2023-07-18T21:35:26.633Z,39.50
2023-07-18T21:37:53.685Z,39.50
2023-07-18T21:40:20.637Z,39.50
2023-07-18T21:42:49.111Z,39.40
2023-07-18T21:45:16.530Z,39.30
2023-07-18T21:47:43.920Z,39.30
2023-07-18T21:50:11.188Z,39.30
2023-07-18T21:52:38.583Z,39.30
2023-07-18T21:55:06.035Z,39.40
2023-07-18T21:57:33.046Z,39.30
2023-07-18T22:00:00.306Z,39.30
2023-07-18T22:02:34.537Z,39.30
2023-07-18T22:05:02.352Z,39.30
2023-07-18T22:07:30.870Z,39.30
2023-07-18T22:09:57.936Z,39.30
2023-07-18T22:12:24.875Z,39.10
2023-07-18T22:14:51.823Z,38.80
2023-07-18T22:17:18.914Z,38.80
2023-07-18T22:19:45.990Z,38.90
2023-07-18T22:22:13.214Z,39.10
2023-07-18T22:24:40.414Z,38.90
2023-07-18T22:27:07.441Z,38.80
2023-07-18T22:29:34.588Z,38.70
2023-07-18T22:32:01.533Z,38.50
2023-07-18T22:34:28.524Z,38.30
2023-07-18T22:36:56.080Z,38.50
2023-07-18T22:39:34.453Z,38.60
2023-07-18T22:42:20.821Z,38.10
2023-07-18T22:44:48.390Z,37.90
2023-07-18T22:47:16.838Z,37.50
2023-07-18T22:49:44.452Z,37.20
2023-07-18T22:52:19.765Z,36.70
2023-07-18T22:54:48.552Z,36.30
2023-07-18T22:57:16.799Z,36.20
2023-07-18T22:59:43.827Z,35.80
2023-07-18T23:02:11.854Z,35.80
2023-07-18T23:04:39.997Z,35.40
2023-07-18T23:07:07.293Z,35.50
2023-07-18T23:09:34.568Z,35.80
2023-07-18T23:12:03.448Z,35.70
2023-07-18T23:14:30.374Z,36.00
2023-07-18T23:16:58.043Z,35.40
2023-07-18T23:19:26.498Z,35.80
2023-07-18T23:21:53.489Z,36.10
2023-07-18T23:24:20.537Z,35.90
2023-07-18T23:26:47.610Z,36.00
2023-07-18T23:29:14.939Z,36.40
2023-07-18T23:31:41.855Z,36.50
2023-07-18T23:34:08.800Z,37.00
2023-07-18T23:36:35.797Z,36.80
2023-07-18T23:39:02.903Z,36.80
2023-07-18T23:41:29.931Z,37.00
2023-07-18T23:43:56.913Z,37.60
2023-07-18T23:46:23.898Z,37.30
2023-07-18T23:48:50.842Z,37.40
2023-07-18T23:51:19.286Z,37.80
2023-07-18T23:53:46.678Z,38.20
2023-07-18T23:56:13.661Z,38.20
2023-07-18T23:58:40.693Z,38.60
